createdAt,value
2018-05-23T00:02:19.116Z,16.20
2018-05-23T00:04:46.860Z,16.10
2018-05-23T00:07:14.607Z,16.10
2018-05-23T00:09:41.933Z,16.00
2018-05-23T00:12:08.972Z,16.00
2018-05-23T00:14:35.991Z,16.00
2018-05-23T00:17:02.994Z,16.00
2018-05-23T00:19:29.985Z,15.90
2018-05-23T00:21:56.968Z,15.90
2018-05-23T00:24:23.987Z,15.80
2018-05-23T00:26:51.201Z,15.80
2018-05-23T00:29:18.190Z,15.70
2018-05-23T00:31:45.194Z,15.70
2018-05-23T00:34:12.233Z,15.70
2018-05-23T00:36:39.219Z,15.60
2018-05-23T00:39:06.976Z,15.60
2018-05-23T00:41:34.707Z,15.60
2018-05-23T00:44:01.731Z,15.60
2018-05-23T00:46:28.729Z,15.60
2018-05-23T00:48:56.474Z,15.50
2018-05-23T00:51:23.500Z,15.50
2018-05-23T00:53:50.477Z,15.50
2018-05-23T00:56:17.511Z,15.40
2018-05-23T00:58:44.513Z,15.40
2018-05-23T01:01:11.521Z,15.40
2018-05-23T01:03:39.283Z,15.30
2018-05-23T01:06:07.020Z,15.30
2018-05-23T01:08:34.036Z,15.30
2018-05-23T01:11:01.039Z,15.40
2018-05-23T01:13:28.887Z,15.30
2018-05-23T01:15:55.876Z,15.30
2018-05-23T01:18:22.870Z,15.30
2018-05-23T01:20:49.857Z,15.30
2018-05-23T01:23:17.620Z,15.10
2018-05-23T01:25:45.376Z,15.10
2018-05-23T01:28:13.132Z,15.10
2018-05-23T01:30:40.364Z,15.10
2018-05-23T01:33:07.368Z,15.10
2018-05-23T01:35:34.370Z,15.10
2018-05-23T01:38:01.405Z,15.00
2018-05-23T01:40:28.432Z,15.10
2018-05-23T01:42:55.444Z,15.10
2018-05-23T01:45:22.468Z,15.10
2018-05-23T01:47:50.207Z,15.00
2018-05-23T01:50:17.220Z,15.00
2018-05-23T01:52:44.277Z,15.00
2018-05-23T01:55:11.324Z,15.00
2018-05-23T01:57:38.351Z,15.00
2018-05-23T02:00:05.347Z,14.90
2018-05-23T02:02:32.373Z,14.90
2018-05-23T02:04:59.415Z,14.90
2018-05-23T02:07:26.417Z,14.90
2018-05-23T02:09:54.212Z,14.80
2018-05-23T02:12:21.209Z,14.80
2018-05-23T02:14:48.224Z,14.80
2018-05-23T02:17:15.209Z,14.80
2018-05-23T02:19:42.953Z,14.80
2018-05-23T02:22:10.213Z,14.80
2018-05-23T02:24:37.216Z,14.80
2018-05-23T02:27:04.229Z,14.80
2018-05-23T02:29:31.972Z,14.70
2018-05-23T02:31:58.966Z,14.70
2018-05-23T02:34:26.012Z,14.70
2018-05-23T02:36:52.999Z,14.60
2018-05-23T02:39:20.016Z,14.70
2018-05-23T02:41:47.030Z,14.60
2018-05-23T02:44:14.804Z,14.60
2018-05-23T02:46:42.738Z,14.60
2018-05-23T02:49:09.732Z,14.60
2018-05-23T02:51:37.299Z,14.50
2018-05-23T02:54:04.349Z,14.50
2018-05-23T02:56:31.337Z,14.50
2018-05-23T02:58:58.324Z,14.50
2018-05-23T03:01:25.349Z,14.50
2018-05-23T03:03:53.344Z,14.40
2018-05-23T03:06:20.360Z,14.40
2018-05-23T03:08:47.332Z,14.40
2018-05-23T03:11:14.325Z,14.40
2018-05-23T03:13:41.308Z,14.40
2018-05-23T03:16:08.320Z,14.40
2018-05-23T03:18:35.364Z,14.40
2018-05-23T03:21:02.451Z,14.40
2018-05-23T03:23:29.416Z,14.40
2018-05-23T03:25:56.458Z,14.40
2018-05-23T03:28:23.462Z,14.50
2018-05-23T03:30:50.471Z,14.50
2018-05-23T03:33:17.460Z,14.50
2018-05-23T03:35:44.451Z,14.50
2018-05-23T03:38:11.465Z,14.50
2018-05-23T03:40:39.301Z,14.60
2018-05-23T03:43:06.345Z,14.50
2018-05-23T03:45:33.360Z,14.60
2018-05-23T03:48:00.356Z,14.60
2018-05-23T03:50:27.355Z,14.60
2018-05-23T03:52:54.368Z,14.60
2018-05-23T03:55:21.488Z,14.70
2018-05-23T03:57:49.174Z,14.80
2018-05-23T04:00:34.764Z,14.70
2018-05-23T04:03:20.879Z,14.80
2018-05-23T04:06:06.455Z,14.90
2018-05-23T04:08:34.299Z,14.90
2018-05-23T04:11:02.093Z,14.90
2018-05-23T04:13:29.081Z,14.90
2018-05-23T04:15:56.088Z,15.00
2018-05-23T04:18:23.114Z,15.00
2018-05-23T04:20:50.879Z,15.00
2018-05-23T04:23:17.881Z,15.00
2018-05-23T04:25:44.879Z,15.00
2018-05-23T04:28:11.883Z,15.10
2018-05-23T04:30:38.896Z,15.10
2018-05-23T04:33:05.925Z,15.20
2018-05-23T04:35:32.952Z,15.20
2018-05-23T04:38:00.957Z,15.30
2018-05-23T04:40:28.046Z,15.30
2018-05-23T04:42:55.063Z,15.30
2018-05-23T04:45:22.060Z,15.30
2018-05-23T04:47:49.811Z,15.30
2018-05-23T04:50:16.808Z,15.30
2018-05-23T04:52:43.853Z,15.40
2018-05-23T04:55:10.863Z,15.40
2018-05-23T04:57:38.613Z,15.50
2018-05-23T05:00:05.660Z,15.50
2018-05-23T05:02:33.414Z,15.60
2018-05-23T05:05:00.421Z,15.60
2018-05-23T05:07:27.419Z,15.60
2018-05-23T05:09:54.521Z,15.60
2018-05-23T05:12:21.468Z,15.60
2018-05-23T05:14:48.465Z,15.60
2018-05-23T05:17:15.453Z,15.60
2018-05-23T05:19:42.476Z,15.70
2018-05-23T05:22:10.211Z,15.90
2018-05-23T05:24:37.237Z,15.80
2018-05-23T05:27:04.288Z,15.90
2018-05-23T05:29:32.030Z,16.00
2018-05-23T05:31:59.048Z,15.90
2018-05-23T05:34:26.794Z,16.00
2018-05-23T05:36:53.813Z,16.00
2018-05-23T05:39:20.809Z,16.10
2018-05-23T05:41:47.833Z,16.10
2018-05-23T05:44:15.598Z,16.20
2018-05-23T05:46:42.596Z,16.20
2018-05-23T05:49:09.627Z,16.20
2018-05-23T05:51:36.628Z,16.30
2018-05-23T05:54:03.677Z,16.30
2018-05-23T05:56:30.683Z,16.40
2018-05-23T05:58:57.688Z,16.50
2018-05-23T06:01:25.465Z,16.50
2018-05-23T06:03:52.569Z,16.50
2018-05-23T06:06:19.657Z,16.60
2018-05-23T06:08:46.882Z,16.60
2018-05-23T06:11:14.012Z,16.60
2018-05-23T06:13:41.135Z,16.70
2018-05-23T06:16:08.185Z,16.70
2018-05-23T06:18:35.283Z,16.70
2018-05-23T06:21:02.501Z,16.80
2018-05-23T06:23:30.408Z,16.80
2018-05-23T06:25:57.733Z,16.80
2018-05-23T06:28:24.756Z,16.90
2018-05-23T06:30:51.880Z,16.90
2018-05-23T06:33:18.964Z,17.00
2018-05-23T06:35:46.045Z,17.00
2018-05-23T06:38:13.116Z,17.10
2018-05-23T06:40:40.219Z,17.10
2018-05-23T06:43:08.021Z,17.20
2018-05-23T06:45:35.880Z,17.20
2018-05-23T06:48:03.046Z,17.20
2018-05-23T06:50:30.097Z,17.20
2018-05-23T06:52:57.216Z,17.30
2018-05-23T06:55:24.314Z,17.30
2018-05-23T06:57:51.473Z,17.40
2018-05-23T07:00:18.772Z,17.50
2018-05-23T07:02:45.866Z,17.50
2018-05-23T07:05:12.903Z,17.50
2018-05-23T07:07:40.019Z,17.50
2018-05-23T07:10:07.071Z,17.60
2018-05-23T07:12:34.927Z,17.70
2018-05-23T07:15:02.074Z,17.70
2018-05-23T07:17:29.224Z,17.80
2018-05-23T07:19:57.089Z,17.90
2018-05-23T07:22:24.141Z,17.90
2018-05-23T07:24:51.255Z,18.00
2018-05-23T07:27:19.062Z,18.10
2018-05-23T07:29:46.925Z,18.20
2018-05-23T07:32:13.960Z,18.20
2018-05-23T07:34:41.063Z,18.20
2018-05-23T07:37:08.117Z,18.30
2018-05-23T07:39:35.211Z,18.40
2018-05-23T07:42:02.413Z,18.50
2018-05-23T07:44:29.561Z,18.60
2018-05-23T07:46:56.683Z,18.70
2018-05-23T07:49:23.752Z,18.80
2018-05-23T07:51:50.870Z,18.90
2018-05-23T07:54:17.945Z,18.90
2018-05-23T07:56:45.139Z,18.90
2018-05-23T07:59:12.175Z,19.00
2018-05-23T08:01:39.298Z,19.00
2018-05-23T08:04:06.381Z,19.10
2018-05-23T08:06:33.493Z,19.30
2018-05-23T08:09:00.630Z,19.40
2018-05-23T08:11:27.781Z,19.40
2018-05-23T08:13:54.837Z,19.50
2018-05-23T08:16:21.928Z,19.50
2018-05-23T08:18:48.972Z,19.50
2018-05-23T08:21:16.073Z,19.60
2018-05-23T08:23:43.124Z,19.60
2018-05-23T08:27:29.697Z,19.70
2018-05-23T08:29:56.861Z,19.70
2018-05-23T08:32:24.008Z,19.80
2018-05-23T08:34:51.192Z,19.80
2018-05-23T08:37:18.253Z,19.80
2018-05-23T08:39:45.344Z,19.80
2018-05-23T08:42:12.486Z,19.90
2018-05-23T08:44:40.292Z,20.10
2018-05-23T08:47:07.445Z,20.10
2018-05-23T08:49:34.598Z,20.30
2018-05-23T08:52:01.727Z,20.40
2018-05-23T08:54:29.501Z,20.60
2018-05-23T08:56:57.336Z,20.70
2018-05-23T08:59:25.128Z,20.70
2018-05-23T09:01:52.222Z,20.70
2018-05-23T09:04:19.370Z,20.80
2018-05-23T09:06:46.510Z,20.90
2018-05-23T09:09:13.661Z,21.00
2018-05-23T09:11:41.220Z,21.10
2018-05-23T09:14:08.576Z,21.10
2018-05-23T09:16:36.511Z,21.30
2018-05-23T09:19:03.664Z,21.30
2018-05-23T09:21:30.800Z,21.40
2018-05-23T09:23:57.966Z,21.50
2018-05-23T09:26:25.105Z,21.60
2018-05-23T09:28:52.196Z,21.60
2018-05-23T09:31:19.366Z,21.70
2018-05-23T09:33:47.286Z,21.80
2018-05-23T09:36:14.423Z,21.80
2018-05-23T09:38:41.553Z,21.90
2018-05-23T09:41:08.723Z,21.90
2018-05-23T09:43:35.858Z,22.00
2018-05-23T09:46:02.912Z,22.10
2018-05-23T09:48:30.009Z,22.10
2018-05-23T09:50:57.081Z,22.10
2018-05-23T09:53:24.241Z,22.20
2018-05-23T09:55:51.428Z,22.30
2018-05-23T09:58:18.591Z,22.40
2018-05-23T10:00:45.772Z,22.50
2018-05-23T10:03:13.580Z,22.60
2018-05-23T10:05:40.687Z,22.50
2018-05-23T10:08:07.711Z,22.60
2018-05-23T10:10:35.540Z,22.80
2018-05-23T10:13:02.703Z,22.70
2018-05-23T10:15:29.800Z,22.80
2018-05-23T10:17:57.701Z,22.90
2018-05-23T10:20:25.454Z,23.00
2018-05-23T10:22:52.577Z,22.90
2018-05-23T10:25:20.364Z,23.00
2018-05-23T10:27:47.461Z,23.00
2018-05-23T10:30:14.527Z,23.10
2018-05-23T10:32:41.670Z,23.10
2018-05-23T10:35:08.796Z,23.20
2018-05-23T10:37:35.940Z,23.30
2018-05-23T10:40:03.098Z,23.40
2018-05-23T10:42:30.166Z,23.40
2018-05-23T10:44:58.006Z,23.50
2018-05-23T10:47:25.049Z,23.50
2018-05-23T10:49:52.876Z,23.60
2018-05-23T10:52:20.780Z,23.50
2018-05-23T10:54:47.922Z,23.50
2018-05-23T10:57:15.853Z,23.50
2018-05-23T10:59:42.853Z,23.50
2018-05-23T11:02:10.707Z,23.70
2018-05-23T11:04:37.769Z,23.70
2018-05-23T11:07:04.874Z,23.70
2018-05-23T11:09:31.919Z,23.70
2018-05-23T11:11:59.017Z,23.70
2018-05-23T11:14:26.070Z,23.70
2018-05-23T11:16:53.181Z,23.80
2018-05-23T11:19:20.223Z,23.90
2018-05-23T11:21:47.356Z,23.90
2018-05-23T11:24:15.152Z,23.90
2018-05-23T11:26:42.257Z,23.90
2018-05-23T11:29:09.311Z,23.90
2018-05-23T11:31:36.396Z,23.90
2018-05-23T11:34:03.584Z,23.90
2018-05-23T11:36:30.640Z,23.90
2018-05-23T11:38:57.725Z,24.10
2018-05-23T11:41:25.526Z,24.20
2018-05-23T11:43:53.377Z,24.20
2018-05-23T11:46:20.420Z,24.20
2018-05-23T11:48:47.495Z,24.30
2018-05-23T11:51:14.558Z,24.40
2018-05-23T11:53:41.586Z,24.50
2018-05-23T11:56:09.376Z,24.50
2018-05-23T11:58:36.375Z,24.60
2018-05-23T12:01:04.144Z,24.70
2018-05-23T12:03:31.157Z,24.60
2018-05-23T12:05:58.173Z,24.70
2018-05-23T12:08:25.190Z,24.70
2018-05-23T12:10:52.969Z,24.60
2018-05-23T12:13:19.979Z,24.60
2018-05-23T12:15:46.956Z,24.60
2018-05-23T12:18:13.957Z,24.70
2018-05-23T12:20:40.953Z,24.80
2018-05-23T12:23:07.959Z,24.90
2018-05-23T12:25:34.988Z,25.00
2018-05-23T12:28:02.016Z,25.00
2018-05-23T12:30:29.141Z,25.00
2018-05-23T12:32:56.859Z,24.90
2018-05-23T12:35:23.907Z,24.90
2018-05-23T12:37:50.924Z,24.90
2018-05-23T12:40:17.924Z,24.90
2018-05-23T12:42:45.700Z,24.90
2018-05-23T12:45:12.680Z,24.90
2018-05-23T12:47:39.701Z,25.00
2018-05-23T12:50:06.741Z,25.00
2018-05-23T12:52:33.755Z,25.00
2018-05-23T12:55:00.747Z,25.00
2018-05-23T12:57:27.768Z,24.90
2018-05-23T12:59:55.528Z,24.80
2018-05-23T13:02:22.522Z,24.80
2018-05-23T13:04:49.554Z,24.90
2018-05-23T13:07:16.579Z,24.90
2018-05-23T13:09:43.576Z,25.00
2018-05-23T13:12:10.577Z,25.40
2018-05-23T13:14:38.340Z,26.10
2018-05-23T13:17:06.072Z,26.40
2018-05-23T13:19:33.100Z,26.40
2018-05-23T13:22:00.099Z,26.70
2018-05-23T13:24:27.870Z,27.30
2018-05-23T13:26:54.898Z,27.20
2018-05-23T13:29:22.652Z,27.90
2018-05-23T13:31:49.660Z,27.80
2018-05-23T13:34:16.691Z,27.90
2018-05-23T13:36:43.688Z,27.90
2018-05-23T13:39:10.711Z,27.80
2018-05-23T13:41:37.719Z,27.80
2018-05-23T13:44:04.753Z,27.70
2018-05-23T13:46:32.528Z,27.20
2018-05-23T13:48:59.553Z,27.20
2018-05-23T13:51:27.316Z,26.90
2018-05-23T13:53:54.365Z,26.80
2018-05-23T13:56:21.392Z,26.70
2018-05-23T13:58:48.400Z,26.60
2018-05-23T14:01:15.393Z,26.90
2018-05-23T14:03:42.450Z,27.20
2018-05-23T14:06:10.233Z,27.50
2018-05-23T14:08:37.988Z,27.60
2018-05-23T14:11:05.746Z,27.50
2018-05-23T14:13:32.771Z,27.50
2018-05-23T14:15:59.797Z,27.50
2018-05-23T14:18:26.816Z,27.20
2018-05-23T14:20:53.841Z,27.10
2018-05-23T14:23:21.609Z,26.60
2018-05-23T14:25:48.727Z,26.60
2018-05-23T14:28:15.763Z,26.40
2018-05-23T14:30:42.767Z,26.20
2018-05-23T14:33:09.814Z,26.10
2018-05-23T14:35:37.568Z,26.10
2018-05-23T14:38:04.620Z,26.00
2018-05-23T14:40:32.385Z,26.20
2018-05-23T14:43:00.137Z,26.30
2018-05-23T14:45:27.913Z,26.30
2018-05-23T14:47:54.925Z,26.30
2018-05-23T14:50:21.962Z,26.30
2018-05-23T14:52:49.004Z,26.40
2018-05-23T14:55:16.016Z,26.40
2018-05-23T14:57:43.917Z,26.30
2018-05-23T15:00:10.951Z,26.20
2018-05-23T15:02:37.961Z,26.20
2018-05-23T15:05:04.981Z,26.10
2018-05-23T15:07:32.747Z,26.10
2018-05-23T15:09:59.773Z,26.00
2018-05-23T15:12:26.779Z,26.10
2018-05-23T15:14:53.780Z,26.10
2018-05-23T15:17:20.808Z,26.10
2018-05-23T15:19:47.924Z,26.10
2018-05-23T15:22:16.788Z,26.10
2018-05-23T15:24:44.541Z,26.10
2018-05-23T15:27:12.330Z,26.00
2018-05-23T15:29:40.122Z,25.90
2018-05-23T15:32:07.144Z,25.90
2018-05-23T15:34:34.179Z,25.80
2018-05-23T15:37:01.924Z,25.60
2018-05-23T15:39:28.948Z,25.50
2018-05-23T15:41:55.976Z,25.50
2018-05-23T15:44:22.985Z,25.40
2018-05-23T15:46:50.757Z,25.20
2018-05-23T15:49:18.485Z,25.00
2018-05-23T17:27:54.625Z,21.80
2018-05-23T17:30:21.637Z,21.80
2018-05-23T17:32:49.412Z,21.80
2018-05-23T17:35:16.483Z,21.80
2018-05-23T17:37:43.508Z,21.80
2018-05-23T17:40:11.354Z,21.80
2018-05-23T17:42:38.305Z,21.80
2018-05-23T17:45:05.327Z,21.70
2018-05-23T17:47:32.352Z,21.70
2018-05-23T17:49:59.585Z,21.70
2018-05-23T17:52:26.681Z,21.60
2018-05-23T17:54:53.817Z,21.60
2018-05-23T17:57:20.864Z,21.50
2018-05-23T17:59:48.085Z,21.50
2018-05-23T18:02:15.152Z,21.50
2018-05-23T18:04:42.205Z,21.40
2018-05-23T18:07:09.245Z,21.40
2018-05-23T18:09:36.239Z,21.40
2018-05-23T18:12:03.431Z,21.40
2018-05-23T18:14:30.395Z,21.30
2018-05-23T18:16:57.404Z,21.30
2018-05-23T18:19:24.482Z,21.30
2018-05-23T18:21:52.317Z,21.20
2018-05-23T18:24:20.116Z,21.20
2018-05-23T18:26:47.141Z,21.10
2018-05-23T18:29:14.915Z,21.10
2018-05-23T18:31:42.686Z,21.00
2018-05-23T18:34:09.796Z,21.00
2018-05-23T18:36:37.571Z,21.00
2018-05-23T18:39:05.348Z,20.90
2018-05-23T18:41:32.368Z,20.90
2018-05-23T18:43:59.543Z,20.90
2018-05-23T18:46:27.452Z,20.90
2018-05-23T18:48:54.867Z,20.90
2018-05-23T18:51:21.908Z,20.80
2018-05-23T18:53:49.859Z,20.70
2018-05-23T18:56:17.757Z,20.60
2018-05-23T18:58:44.833Z,20.60
2018-05-23T19:01:12.008Z,20.70
2018-05-23T19:03:39.077Z,20.60
2018-05-23T19:06:07.769Z,20.60
2018-05-23T19:08:35.561Z,20.60
2018-05-23T19:11:03.061Z,20.50
2018-05-23T19:13:30.109Z,20.50
2018-05-23T19:15:57.192Z,20.40
2018-05-23T19:18:24.445Z,20.40
2018-05-23T19:20:51.524Z,20.40
2018-05-23T19:23:18.812Z,20.30
2018-05-23T19:25:46.095Z,20.30
2018-05-23T19:28:13.322Z,20.30
2018-05-23T19:30:41.359Z,20.20
2018-05-23T19:33:08.532Z,20.20
2018-05-23T19:35:36.345Z,20.20
2018-05-23T19:38:03.418Z,20.20
2018-05-23T19:40:30.484Z,20.10
2018-05-23T19:42:57.733Z,20.10
2018-05-23T19:45:25.661Z,20.10
2018-05-23T19:47:52.753Z,20.00
2018-05-23T19:50:19.850Z,20.00
2018-05-23T19:52:47.760Z,20.00
2018-05-23T19:55:14.728Z,19.90
2018-05-23T19:57:41.754Z,20.00
2018-05-23T20:00:08.834Z,19.90
2018-05-23T20:02:36.816Z,19.90
2018-05-23T20:05:05.528Z,19.90
2018-05-23T20:07:33.501Z,19.90
2018-05-23T20:10:02.168Z,19.80
2018-05-23T20:12:29.977Z,19.80
2018-05-23T20:14:57.361Z,19.80
2018-05-23T20:17:24.453Z,19.80
2018-05-23T20:19:51.493Z,19.70
2018-05-23T20:22:18.848Z,19.80
2018-05-23T20:24:45.820Z,19.70
2018-05-23T20:27:12.845Z,19.70
2018-05-23T20:29:40.145Z,19.70
2018-05-23T20:32:07.153Z,19.70
2018-05-23T20:34:34.200Z,19.70
2018-05-23T20:37:01.270Z,19.70
2018-05-23T20:39:28.309Z,19.70
2018-05-23T20:41:55.392Z,19.70
2018-05-23T20:44:22.432Z,19.70
2018-05-23T20:46:49.468Z,19.70
2018-05-23T20:49:16.485Z,19.70
2018-05-23T20:51:43.576Z,19.70
2018-05-23T20:54:10.604Z,19.60
2018-05-23T20:56:37.613Z,19.60
2018-05-23T20:59:05.380Z,19.60
2018-05-23T21:01:32.416Z,19.60
2018-05-23T21:03:59.581Z,19.60
2018-05-23T21:06:26.688Z,19.60
2018-05-23T21:08:54.488Z,19.50
2018-05-23T21:11:22.245Z,19.50
2018-05-23T21:13:49.247Z,19.50
2018-05-23T21:16:16.276Z,19.50
2018-05-23T21:18:43.291Z,19.50
2018-05-23T21:21:11.054Z,19.50
2018-05-23T21:23:38.060Z,19.50
2018-05-23T21:26:05.048Z,19.50
2018-05-23T21:28:32.844Z,19.50
2018-05-23T21:30:59.856Z,19.40
2018-05-23T21:33:27.640Z,19.40
2018-05-23T21:35:54.684Z,19.40
2018-05-23T21:38:21.718Z,19.40
2018-05-23T21:40:49.480Z,19.30
2018-05-23T21:43:16.505Z,19.30
2018-05-23T21:45:43.512Z,19.30
2018-05-23T21:48:10.550Z,19.30
2018-05-23T21:50:37.565Z,19.30
2018-05-23T21:53:05.345Z,19.20
2018-05-23T21:55:32.381Z,19.20
2018-05-23T21:57:59.403Z,19.20
2018-05-23T22:00:27.181Z,19.20
2018-05-23T22:02:54.185Z,19.20
2018-05-23T22:05:21.228Z,19.20
2018-05-23T22:07:48.248Z,19.30
2018-05-23T22:10:15.275Z,19.20
2018-05-23T22:12:43.040Z,19.20
2018-05-23T22:15:11.146Z,19.20
2018-05-23T22:17:38.174Z,19.20
2018-05-23T22:20:05.915Z,19.20
2018-05-23T22:22:32.945Z,19.20
2018-05-23T22:24:59.984Z,19.20
2018-05-23T22:27:27.002Z,19.20
2018-05-23T22:29:54.032Z,19.20
2018-05-23T22:32:21.069Z,19.10
2018-05-23T22:34:48.124Z,19.10
2018-05-23T22:37:15.260Z,19.10
2018-05-23T22:39:42.306Z,19.00
2018-05-23T22:42:09.329Z,19.00
2018-05-23T22:44:37.954Z,19.00
2018-05-23T22:47:04.984Z,18.90
2018-05-23T22:49:31.981Z,19.00
2018-05-23T22:51:59.064Z,18.90
2018-05-23T22:54:26.059Z,18.90
2018-05-23T22:56:53.037Z,18.80
2018-05-23T22:59:20.076Z,18.80
2018-05-23T23:01:47.091Z,18.80
2018-05-23T23:04:14.116Z,18.70
2018-05-23T23:06:41.153Z,18.70
2018-05-23T23:09:08.901Z,18.70
2018-05-23T23:11:35.936Z,18.70
2018-05-23T23:14:02.965Z,18.70
2018-05-23T23:16:30.007Z,18.60
2018-05-23T23:18:57.101Z,18.60
2018-05-23T23:21:24.060Z,18.60
2018-05-23T23:23:51.816Z,18.60
2018-05-23T23:26:19.576Z,18.50
2018-05-23T23:28:47.338Z,18.50
2018-05-23T23:31:15.103Z,18.50
2018-05-23T23:33:42.132Z,18.40
2018-05-23T23:36:09.160Z,18.40
2018-05-23T23:38:36.176Z,18.40
2018-05-23T23:41:03.192Z,18.40
2018-05-23T23:43:30.948Z,18.30
2018-05-23T23:45:57.988Z,18.30
2018-05-23T23:48:25.001Z,18.30
2018-05-23T23:50:52.025Z,18.30
2018-05-23T23:53:19.047Z,18.20
2018-05-23T23:55:46.797Z,18.20
2018-05-23T23:58:13.822Z,18.20
